sensor_id;sensor_type;location;lat;lon;timestamp;P1;durP1;ratioP1;P2;durP2;ratioP2
12480;SDS011;6305;48.398;11.762;2023-02-11T00:01:08;158.20;;;70.20;;
12480;SDS011;6305;48.398;11.762;2023-02-11T00:03:36;154.00;;;67.03;;
12480;SDS011;6305;48.398;11.762;2023-02-11T00:06:03;157.23;;;65.90;;
12480;SDS011;6305;48.398;11.762;2023-02-11T00:08:35;162.03;;;67.67;;
12480;SDS011;6305;48.398;11.762;2023-02-11T00:11:03;150.97;;;67.40;;
12480;SDS011;6305;48.398;11.762;2023-02-11T00:13:31;158.03;;;68.77;;
12480;SDS011;6305;48.398;11.762;2023-02-11T00:15:58;152.40;;;65.20;;
12480;SDS011;6305;48.398;11.762;2023-02-11T00:18:26;163.83;;;70.87;;
12480;SDS011;6305;48.398;11.762;2023-02-11T00:20:53;161.37;;;70.27;;
12480;SDS011;6305;48.398;11.762;2023-02-11T00:23:20;162.10;;;70.13;;
12480;SDS011;6305;48.398;11.762;2023-02-11T00:25:48;158.20;;;67.67;;
12480;SDS011;6305;48.398;11.762;2023-02-11T00:28:16;160.83;;;69.93;;
12480;SDS011;6305;48.398;11.762;2023-02-11T00:30:43;146.00;;;65.70;;
12480;SDS011;6305;48.398;11.762;2023-02-11T00:33:09;150.27;;;66.87;;
12480;SDS011;6305;48.398;11.762;2023-02-11T00:35:36;150.07;;;67.10;;
12480;SDS011;6305;48.398;11.762;2023-02-11T00:38:06;161.17;;;69.77;;
12480;SDS011;6305;48.398;11.762;2023-02-11T00:40:33;166.00;;;70.50;;
12480;SDS011;6305;48.398;11.762;2023-02-11T00:43:02;159.27;;;71.73;;
12480;SDS011;6305;48.398;11.762;2023-02-11T00:45:30;167.03;;;74.07;;
12480;SDS011;6305;48.398;11.762;2023-02-11T00:47:56;174.03;;;77.80;;
12480;SDS011;6305;48.398;11.762;2023-02-11T00:50:26;168.23;;;77.47;;
12480;SDS011;6305;48.398;11.762;2023-02-11T00:52:54;164.77;;;77.47;;
12480;SDS011;6305;48.398;11.762;2023-02-11T00:55:21;177.33;;;79.17;;
12480;SDS011;6305;48.398;11.762;2023-02-11T00:57:48;163.90;;;78.87;;
12480;SDS011;6305;48.398;11.762;2023-02-11T01:00:16;172.17;;;80.80;;
12480;SDS011;6305;48.398;11.762;2023-02-11T01:02:44;179.20;;;81.53;;
12480;SDS011;6305;48.398;11.762;2023-02-11T01:05:10;184.07;;;84.63;;
12480;SDS011;6305;48.398;11.762;2023-02-11T01:07:37;184.03;;;83.60;;
12480;SDS011;6305;48.398;11.762;2023-02-11T01:10:05;183.10;;;81.07;;
12480;SDS011;6305;48.398;11.762;2023-02-11T01:12:32;181.23;;;78.97;;
12480;SDS011;6305;48.398;11.762;2023-02-11T01:14:58;173.50;;;78.97;;
12480;SDS011;6305;48.398;11.762;2023-02-11T01:17:27;174.77;;;77.90;;
12480;SDS011;6305;48.398;11.762;2023-02-11T01:19:54;175.13;;;79.13;;
12480;SDS011;6305;48.398;11.762;2023-02-11T01:22:21;184.13;;;79.07;;
12480;SDS011;6305;48.398;11.762;2023-02-11T01:24:48;179.10;;;77.97;;
12480;SDS011;6305;48.398;11.762;2023-02-11T01:27:15;180.50;;;81.53;;
12480;SDS011;6305;48.398;11.762;2023-02-11T01:29:43;178.53;;;81.97;;
12480;SDS011;6305;48.398;11.762;2023-02-11T01:32:10;190.50;;;83.63;;
12480;SDS011;6305;48.398;11.762;2023-02-11T01:34:38;193.13;;;83.67;;
12480;SDS011;6305;48.398;11.762;2023-02-11T01:37:05;195.40;;;84.73;;
12480;SDS011;6305;48.398;11.762;2023-02-11T01:39:32;183.07;;;78.23;;
12480;SDS011;6305;48.398;11.762;2023-02-11T01:42:00;186.07;;;82.93;;
12480;SDS011;6305;48.398;11.762;2023-02-11T01:44:30;177.93;;;80.90;;
12480;SDS011;6305;48.398;11.762;2023-02-11T01:46:58;204.43;;;88.63;;
12480;SDS011;6305;48.398;11.762;2023-02-11T01:49:26;209.57;;;88.07;;
12480;SDS011;6305;48.398;11.762;2023-02-11T01:51:57;198.63;;;78.93;;
12480;SDS011;6305;48.398;11.762;2023-02-11T01:54:27;193.20;;;87.27;;
12480;SDS011;6305;48.398;11.762;2023-02-11T01:57:16;181.97;;;78.00;;
12480;SDS011;6305;48.398;11.762;2023-02-11T01:59:53;208.87;;;89.37;;
12480;SDS011;6305;48.398;11.762;2023-02-11T02:02:43;194.10;;;85.20;;
12480;SDS011;6305;48.398;11.762;2023-02-11T02:05:21;199.67;;;88.80;;
12480;SDS011;6305;48.398;11.762;2023-02-11T02:07:57;216.37;;;89.37;;
12480;SDS011;6305;48.398;11.762;2023-02-11T02:10:29;198.80;;;83.97;;
12480;SDS011;6305;48.398;11.762;2023-02-11T02:12:59;201.87;;;82.60;;
12480;SDS011;6305;48.398;11.762;2023-02-11T02:15:28;200.70;;;85.93;;
12480;SDS011;6305;48.398;11.762;2023-02-11T02:18:08;184.53;;;83.40;;
12480;SDS011;6305;48.398;11.762;2023-02-11T02:21:09;192.43;;;83.70;;
12480;SDS011;6305;48.398;11.762;2023-02-11T02:24:15;182.30;;;81.23;;
12480;SDS011;6305;48.398;11.762;2023-02-11T02:32:51;205.80;;;86.73;;
12480;SDS011;6305;48.398;11.762;2023-02-11T02:35:32;202.73;;;88.67;;
12480;SDS011;6305;48.398;11.762;2023-02-11T02:38:05;211.77;;;90.80;;
12480;SDS011;6305;48.398;11.762;2023-02-11T02:40:37;208.97;;;91.00;;
12480;SDS011;6305;48.398;11.762;2023-02-11T02:43:10;191.23;;;84.57;;
12480;SDS011;6305;48.398;11.762;2023-02-11T02:45:38;209.90;;;85.37;;
12480;SDS011;6305;48.398;11.762;2023-02-11T02:48:06;190.43;;;86.33;;
12480;SDS011;6305;48.398;11.762;2023-02-11T02:50:47;199.20;;;83.90;;
12480;SDS011;6305;48.398;11.762;2023-02-11T02:53:19;201.20;;;84.83;;
12480;SDS011;6305;48.398;11.762;2023-02-11T02:55:56;188.40;;;85.37;;
12480;SDS011;6305;48.398;11.762;2023-02-11T02:58:35;198.57;;;84.93;;
12480;SDS011;6305;48.398;11.762;2023-02-11T03:01:22;193.73;;;83.30;;
12480;SDS011;6305;48.398;11.762;2023-02-11T03:03:58;187.43;;;81.67;;
12480;SDS011;6305;48.398;11.762;2023-02-11T03:06:33;190.47;;;78.17;;
12480;SDS011;6305;48.398;11.762;2023-02-11T03:09:10;186.07;;;83.30;;
12480;SDS011;6305;48.398;11.762;2023-02-11T03:11:41;192.93;;;82.20;;
12480;SDS011;6305;48.398;11.762;2023-02-11T03:14:09;187.10;;;81.93;;
12480;SDS011;6305;48.398;11.762;2023-02-11T03:16:38;196.13;;;84.70;;
12480;SDS011;6305;48.398;11.762;2023-02-11T03:19:09;193.17;;;87.00;;
12480;SDS011;6305;48.398;11.762;2023-02-11T03:21:38;189.83;;;78.40;;
12480;SDS011;6305;48.398;11.762;2023-02-11T03:24:09;193.60;;;78.80;;
12480;SDS011;6305;48.398;11.762;2023-02-11T03:26:40;187.60;;;82.40;;
12480;SDS011;6305;48.398;11.762;2023-02-11T03:29:13;190.10;;;81.83;;
12480;SDS011;6305;48.398;11.762;2023-02-11T03:31:50;187.43;;;80.63;;
12480;SDS011;6305;48.398;11.762;2023-02-11T03:34:25;189.00;;;87.07;;
12480;SDS011;6305;48.398;11.762;2023-02-11T03:36:57;198.20;;;81.00;;
12480;SDS011;6305;48.398;11.762;2023-02-11T03:39:29;188.63;;;81.90;;
12480;SDS011;6305;48.398;11.762;2023-02-11T03:42:00;192.13;;;83.73;;
12480;SDS011;6305;48.398;11.762;2023-02-11T03:44:30;188.53;;;82.87;;
12480;SDS011;6305;48.398;11.762;2023-02-11T03:47:02;189.07;;;79.93;;
12480;SDS011;6305;48.398;11.762;2023-02-11T03:49:33;199.00;;;82.87;;
12480;SDS011;6305;48.398;11.762;2023-02-11T03:52:03;191.87;;;81.37;;
12480;SDS011;6305;48.398;11.762;2023-02-11T03:54:32;184.97;;;80.50;;
12480;SDS011;6305;48.398;11.762;2023-02-11T03:57:00;181.07;;;78.97;;
12480;SDS011;6305;48.398;11.762;2023-02-11T03:59:29;193.63;;;83.63;;
12480;SDS011;6305;48.398;11.762;2023-02-11T04:01:55;182.87;;;80.20;;
12480;SDS011;6305;48.398;11.762;2023-02-11T04:04:23;184.50;;;81.13;;
12480;SDS011;6305;48.398;11.762;2023-02-11T04:06:52;178.20;;;79.63;;
12480;SDS011;6305;48.398;11.762;2023-02-11T04:09:19;190.33;;;80.27;;
12480;SDS011;6305;48.398;11.762;2023-02-11T04:11:46;184.07;;;77.77;;
12480;SDS011;6305;48.398;11.762;2023-02-11T04:14:13;175.83;;;74.20;;
12480;SDS011;6305;48.398;11.762;2023-02-11T04:16:39;169.70;;;73.23;;
12480;SDS011;6305;48.398;11.762;2023-02-11T04:19:06;170.67;;;72.63;;
12480;SDS011;6305;48.398;11.762;2023-02-11T04:21:33;185.23;;;74.67;;
12480;SDS011;6305;48.398;11.762;2023-02-11T04:24:02;186.70;;;74.33;;
12480;SDS011;6305;48.398;11.762;2023-02-11T04:26:29;182.80;;;74.03;;
12480;SDS011;6305;48.398;11.762;2023-02-11T04:28:56;171.63;;;70.37;;
12480;SDS011;6305;48.398;11.762;2023-02-11T04:31:23;174.37;;;74.60;;
12480;SDS011;6305;48.398;11.762;2023-02-11T04:33:50;174.53;;;72.87;;
12480;SDS011;6305;48.398;11.762;2023-02-11T04:36:17;176.73;;;73.27;;
12480;SDS011;6305;48.398;11.762;2023-02-11T04:38:44;168.77;;;71.13;;
12480;SDS011;6305;48.398;11.762;2023-02-11T04:41:12;170.57;;;70.40;;
12480;SDS011;6305;48.398;11.762;2023-02-11T04:43:39;167.67;;;68.90;;
12480;SDS011;6305;48.398;11.762;2023-02-11T04:46:06;167.87;;;72.33;;
12480;SDS011;6305;48.398;11.762;2023-02-11T04:48:33;161.40;;;70.77;;
12480;SDS011;6305;48.398;11.762;2023-02-11T04:51:00;165.83;;;69.93;;
12480;SDS011;6305;48.398;11.762;2023-02-11T04:53:27;165.97;;;69.60;;
12480;SDS011;6305;48.398;11.762;2023-02-11T04:55:54;161.23;;;70.73;;
12480;SDS011;6305;48.398;11.762;2023-02-11T04:58:23;176.37;;;71.77;;
12480;SDS011;6305;48.398;11.762;2023-02-11T05:00:50;165.00;;;68.00;;
12480;SDS011;6305;48.398;11.762;2023-02-11T05:03:17;169.87;;;67.73;;
12480;SDS011;6305;48.398;11.762;2023-02-11T05:05:44;166.03;;;65.37;;
12480;SDS011;6305;48.398;11.762;2023-02-11T05:08:11;158.53;;;63.30;;
12480;SDS011;6305;48.398;11.762;2023-02-11T05:10:38;156.47;;;61.27;;
12480;SDS011;6305;48.398;11.762;2023-02-11T05:13:05;151.40;;;60.13;;
12480;SDS011;6305;48.398;11.762;2023-02-11T05:15:33;143.93;;;59.80;;
12480;SDS011;6305;48.398;11.762;2023-02-11T05:18:00;150.73;;;58.50;;
12480;SDS011;6305;48.398;11.762;2023-02-11T05:20:27;139.87;;;54.53;;
12480;SDS011;6305;48.398;11.762;2023-02-11T05:22:54;134.37;;;55.93;;
12480;SDS011;6305;48.398;11.762;2023-02-11T05:25:20;139.23;;;54.63;;
12480;SDS011;6305;48.398;11.762;2023-02-11T05:27:47;135.30;;;54.13;;
12480;SDS011;6305;48.398;11.762;2023-02-11T05:30:14;131.80;;;53.60;;
12480;SDS011;6305;48.398;11.762;2023-02-11T05:32:43;128.33;;;52.57;;
12480;SDS011;6305;48.398;11.762;2023-02-11T05:35:10;129.60;;;49.67;;
12480;SDS011;6305;48.398;11.762;2023-02-11T05:37:37;120.37;;;51.50;;
12480;SDS011;6305;48.398;11.762;2023-02-11T05:40:04;129.73;;;51.97;;
12480;SDS011;6305;48.398;11.762;2023-02-11T05:42:31;110.57;;;50.00;;
12480;SDS011;6305;48.398;11.762;2023-02-11T05:44:59;112.20;;;46.90;;
12480;SDS011;6305;48.398;11.762;2023-02-11T05:47:26;113.03;;;45.03;;
12480;SDS011;6305;48.398;11.762;2023-02-11T05:49:54;109.57;;;45.10;;
12480;SDS011;6305;48.398;11.762;2023-02-11T05:52:21;104.47;;;43.50;;
12480;SDS011;6305;48.398;11.762;2023-02-11T05:54:49;97.43;;;40.67;;
12480;SDS011;6305;48.398;11.762;2023-02-11T05:57:16;99.70;;;42.43;;
12480;SDS011;6305;48.398;11.762;2023-02-11T05:59:43;89.13;;;40.93;;
12480;SDS011;6305;48.398;11.762;2023-02-11T06:02:10;86.87;;;40.70;;
12480;SDS011;6305;48.398;11.762;2023-02-11T06:04:37;82.83;;;39.73;;
12480;SDS011;6305;48.398;11.762;2023-02-11T06:07:05;85.50;;;39.03;;
12480;SDS011;6305;48.398;11.762;2023-02-11T06:09:32;80.43;;;39.30;;
12480;SDS011;6305;48.398;11.762;2023-02-11T06:11:59;83.80;;;37.83;;
12480;SDS011;6305;48.398;11.762;2023-02-11T06:14:26;75.77;;;35.57;;
12480;SDS011;6305;48.398;11.762;2023-02-11T06:16:53;80.67;;;35.97;;
12480;SDS011;6305;48.398;11.762;2023-02-11T06:19:20;70.20;;;34.50;;
12480;SDS011;6305;48.398;11.762;2023-02-11T06:21:47;77.70;;;34.87;;
12480;SDS011;6305;48.398;11.762;2023-02-11T06:24:15;69.60;;;32.67;;
12480;SDS011;6305;48.398;11.762;2023-02-11T06:26:42;68.40;;;32.83;;
12480;SDS011;6305;48.398;11.762;2023-02-11T06:29:09;68.20;;;31.37;;
12480;SDS011;6305;48.398;11.762;2023-02-11T06:31:37;64.00;;;31.73;;
12480;SDS011;6305;48.398;11.762;2023-02-11T06:34:05;63.97;;;32.03;;
12480;SDS011;6305;48.398;11.762;2023-02-11T06:36:32;64.53;;;31.43;;
12480;SDS011;6305;48.398;11.762;2023-02-11T06:38:59;60.90;;;31.27;;
12480;SDS011;6305;48.398;11.762;2023-02-11T06:41:28;60.77;;;28.90;;
12480;SDS011;6305;48.398;11.762;2023-02-11T06:43:55;58.20;;;28.57;;
12480;SDS011;6305;48.398;11.762;2023-02-11T06:46:22;56.47;;;27.70;;
12480;SDS011;6305;48.398;11.762;2023-02-11T06:48:48;52.63;;;27.03;;
12480;SDS011;6305;48.398;11.762;2023-02-11T06:51:15;49.07;;;25.27;;
12480;SDS011;6305;48.398;11.762;2023-02-11T06:53:43;52.23;;;25.67;;
12480;SDS011;6305;48.398;11.762;2023-02-11T06:56:11;50.67;;;25.83;;
12480;SDS011;6305;48.398;11.762;2023-02-11T06:58:42;45.93;;;25.53;;
12480;SDS011;6305;48.398;11.762;2023-02-11T07:01:10;47.83;;;25.47;;
12480;SDS011;6305;48.398;11.762;2023-02-11T07:03:39;47.17;;;25.17;;
12480;SDS011;6305;48.398;11.762;2023-02-11T07:06:10;47.47;;;23.97;;
12480;SDS011;6305;48.398;11.762;2023-02-11T07:08:38;44.20;;;23.17;;
12480;SDS011;6305;48.398;11.762;2023-02-11T07:11:09;48.67;;;23.73;;
12480;SDS011;6305;48.398;11.762;2023-02-11T07:13:38;40.27;;;22.03;;
12480;SDS011;6305;48.398;11.762;2023-02-11T07:16:08;41.33;;;22.03;;
12480;SDS011;6305;48.398;11.762;2023-02-11T07:18:36;35.13;;;20.23;;
12480;SDS011;6305;48.398;11.762;2023-02-11T07:21:03;36.80;;;19.07;;
12480;SDS011;6305;48.398;11.762;2023-02-11T07:23:32;33.70;;;19.03;;
12480;SDS011;6305;48.398;11.762;2023-02-11T07:26:01;39.33;;;20.27;;
12480;SDS011;6305;48.398;11.762;2023-02-11T07:28:29;33.20;;;19.30;;
12480;SDS011;6305;48.398;11.762;2023-02-11T07:30:56;32.30;;;18.27;;
12480;SDS011;6305;48.398;11.762;2023-02-11T07:33:24;34.07;;;17.57;;
12480;SDS011;6305;48.398;11.762;2023-02-11T07:35:51;32.50;;;16.87;;
12480;SDS011;6305;48.398;11.762;2023-02-11T07:38:18;34.47;;;18.10;;
12480;SDS011;6305;48.398;11.762;2023-02-11T07:40:45;39.43;;;19.00;;
12480;SDS011;6305;48.398;11.762;2023-02-11T07:43:12;40.00;;;18.90;;
12480;SDS011;6305;48.398;11.762;2023-02-11T07:45:38;30.87;;;15.87;;
12480;SDS011;6305;48.398;11.762;2023-02-11T07:48:05;26.93;;;16.23;;
12480;SDS011;6305;48.398;11.762;2023-02-11T07:50:34;26.43;;;16.20;;
12480;SDS011;6305;48.398;11.762;2023-02-11T07:53:01;25.67;;;14.90;;
12480;SDS011;6305;48.398;11.762;2023-02-11T07:55:28;29.63;;;15.87;;
12480;SDS011;6305;48.398;11.762;2023-02-11T07:57:55;27.33;;;14.53;;
12480;SDS011;6305;48.398;11.762;2023-02-11T08:00:22;26.77;;;14.10;;
12480;SDS011;6305;48.398;11.762;2023-02-11T08:02:50;24.57;;;14.67;;
12480;SDS011;6305;48.398;11.762;2023-02-11T08:05:16;25.17;;;13.37;;
12480;SDS011;6305;48.398;11.762;2023-02-11T08:07:45;24.60;;;14.13;;
12480;SDS011;6305;48.398;11.762;2023-02-11T08:10:11;24.93;;;13.50;;
12480;SDS011;6305;48.398;11.762;2023-02-11T08:12:38;26.80;;;14.00;;
12480;SDS011;6305;48.398;11.762;2023-02-11T08:15:05;25.17;;;13.47;;
12480;SDS011;6305;48.398;11.762;2023-02-11T08:17:33;24.70;;;13.80;;
12480;SDS011;6305;48.398;11.762;2023-02-11T08:20:00;22.37;;;12.23;;
12480;SDS011;6305;48.398;11.762;2023-02-11T08:22:29;24.70;;;13.87;;
12480;SDS011;6305;48.398;11.762;2023-02-11T08:24:58;24.33;;;13.47;;
12480;SDS011;6305;48.398;11.762;2023-02-11T08:27:25;21.90;;;13.43;;
12480;SDS011;6305;48.398;11.762;2023-02-11T08:29:52;25.40;;;13.40;;
12480;SDS011;6305;48.398;11.762;2023-02-11T08:32:19;23.90;;;13.57;;
12480;SDS011;6305;48.398;11.762;2023-02-11T08:34:49;21.05;;;12.70;;
12480;SDS011;6305;48.398;11.762;2023-02-11T08:37:17;24.87;;;13.07;;
12480;SDS011;6305;48.398;11.762;2023-02-11T08:39:44;23.10;;;12.60;;
12480;SDS011;6305;48.398;11.762;2023-02-11T08:42:13;23.23;;;12.38;;
12480;SDS011;6305;48.398;11.762;2023-02-11T08:44:42;19.77;;;11.45;;
12480;SDS011;6305;48.398;11.762;2023-02-11T08:47:10;20.75;;;11.88;;
12480;SDS011;6305;48.398;11.762;2023-02-11T08:49:37;16.65;;;10.35;;
12480;SDS011;6305;48.398;11.762;2023-02-11T08:52:06;16.67;;;10.67;;
12480;SDS011;6305;48.398;11.762;2023-02-11T08:54:33;22.10;;;10.97;;
12480;SDS011;6305;48.398;11.762;2023-02-11T08:57:00;16.90;;;10.38;;
12480;SDS011;6305;48.398;11.762;2023-02-11T08:59:28;16.60;;;9.48;;
12480;SDS011;6305;48.398;11.762;2023-02-11T09:01:55;18.38;;;10.43;;
12480;SDS011;6305;48.398;11.762;2023-02-11T09:04:23;20.08;;;10.23;;
12480;SDS011;6305;48.398;11.762;2023-02-11T09:06:50;19.00;;;10.10;;
12480;SDS011;6305;48.398;11.762;2023-02-11T09:09:17;18.60;;;9.88;;
12480;SDS011;6305;48.398;11.762;2023-02-11T09:11:45;17.50;;;9.82;;
12480;SDS011;6305;48.398;11.762;2023-02-11T09:14:17;18.60;;;10.23;;
12480;SDS011;6305;48.398;11.762;2023-02-11T09:16:47;20.35;;;10.55;;
12480;SDS011;6305;48.398;11.762;2023-02-11T09:19:15;17.50;;;10.07;;
12480;SDS011;6305;48.398;11.762;2023-02-11T09:21:43;16.08;;;9.23;;
12480;SDS011;6305;48.398;11.762;2023-02-11T09:24:10;16.60;;;9.50;;
12480;SDS011;6305;48.398;11.762;2023-02-11T09:26:37;18.73;;;10.32;;
12480;SDS011;6305;48.398;11.762;2023-02-11T09:29:07;18.50;;;10.40;;
12480;SDS011;6305;48.398;11.762;2023-02-11T09:31:34;17.33;;;10.05;;
12480;SDS011;6305;48.398;11.762;2023-02-11T09:34:03;18.60;;;10.45;;
12480;SDS011;6305;48.398;11.762;2023-02-11T09:36:35;19.70;;;10.68;;
12480;SDS011;6305;48.398;11.762;2023-02-11T09:39:04;17.58;;;9.98;;
12480;SDS011;6305;48.398;11.762;2023-02-11T09:41:38;15.80;;;10.05;;
12480;SDS011;6305;48.398;11.762;2023-02-11T09:44:16;15.50;;;9.40;;
12480;SDS011;6305;48.398;11.762;2023-02-11T09:46:46;15.35;;;9.75;;
12480;SDS011;6305;48.398;11.762;2023-02-11T09:49:23;15.73;;;9.88;;
12480;SDS011;6305;48.398;11.762;2023-02-11T09:51:56;15.98;;;9.95;;
12480;SDS011;6305;48.398;11.762;2023-02-11T09:54:28;15.77;;;10.05;;
12480;SDS011;6305;48.398;11.762;2023-02-11T09:56:59;16.52;;;10.07;;
12480;SDS011;6305;48.398;11.762;2023-02-11T09:59:27;18.15;;;10.43;;
12480;SDS011;6305;48.398;11.762;2023-02-11T10:01:56;14.48;;;9.65;;
12480;SDS011;6305;48.398;11.762;2023-02-11T10:04:32;17.70;;;11.07;;
12480;SDS011;6305;48.398;11.762;2023-02-11T10:07:12;17.13;;;10.95;;
12480;SDS011;6305;48.398;11.762;2023-02-11T10:12:43;13.02;;;9.07;;
12480;SDS011;6305;48.398;11.762;2023-02-11T10:15:24;16.35;;;10.10;;
12480;SDS011;6305;48.398;11.762;2023-02-11T10:18:06;16.48;;;10.35;;
12480;SDS011;6305;48.398;11.762;2023-02-11T10:21:03;16.67;;;10.02;;
12480;SDS011;6305;48.398;11.762;2023-02-11T10:23:44;16.23;;;10.77;;
12480;SDS011;6305;48.398;11.762;2023-02-11T10:26:16;20.48;;;11.05;;
12480;SDS011;6305;48.398;11.762;2023-02-11T10:28:44;17.92;;;10.55;;
12480;SDS011;6305;48.398;11.762;2023-02-11T10:31:19;16.48;;;10.73;;
12480;SDS011;6305;48.398;11.762;2023-02-11T10:33:50;15.50;;;10.07;;
12480;SDS011;6305;48.398;11.762;2023-02-11T10:36:24;16.13;;;10.85;;
12480;SDS011;6305;48.398;11.762;2023-02-11T10:38:54;16.27;;;10.90;;
12480;SDS011;6305;48.398;11.762;2023-02-11T10:41:23;19.65;;;10.65;;
12480;SDS011;6305;48.398;11.762;2023-02-11T10:43:58;16.35;;;10.52;;
12480;SDS011;6305;48.398;11.762;2023-02-11T10:46:28;15.88;;;10.00;;
12480;SDS011;6305;48.398;11.762;2023-02-11T10:48:59;16.33;;;9.65;;
12480;SDS011;6305;48.398;11.762;2023-02-11T10:51:29;20.92;;;10.52;;
12480;SDS011;6305;48.398;11.762;2023-02-11T10:54:13;14.35;;;9.82;;
12480;SDS011;6305;48.398;11.762;2023-02-11T10:56:46;15.35;;;9.88;;
12480;SDS011;6305;48.398;11.762;2023-02-11T10:59:17;16.00;;;10.18;;
12480;SDS011;6305;48.398;11.762;2023-02-11T11:01:52;14.30;;;9.65;;
12480;SDS011;6305;48.398;11.762;2023-02-11T11:04:32;17.30;;;10.10;;
12480;SDS011;6305;48.398;11.762;2023-02-11T11:07:14;17.00;;;10.63;;
12480;SDS011;6305;48.398;11.762;2023-02-11T11:09:49;16.67;;;10.32;;
12480;SDS011;6305;48.398;11.762;2023-02-11T11:12:33;16.33;;;10.00;;
12480;SDS011;6305;48.398;11.762;2023-02-11T11:15:12;17.77;;;10.35;;
12480;SDS011;6305;48.398;11.762;2023-02-11T11:17:46;18.67;;;10.98;;
12480;SDS011;6305;48.398;11.762;2023-02-11T11:20:14;18.13;;;10.82;;
12480;SDS011;6305;48.398;11.762;2023-02-11T11:22:48;18.80;;;10.73;;
12480;SDS011;6305;48.398;11.762;2023-02-11T11:25:25;16.60;;;10.77;;
12480;SDS011;6305;48.398;11.762;2023-02-11T11:27:54;20.73;;;11.50;;
12480;SDS011;6305;48.398;11.762;2023-02-11T11:30:25;18.15;;;11.10;;
12480;SDS011;6305;48.398;11.762;2023-02-11T11:32:57;21.08;;;10.75;;
12480;SDS011;6305;48.398;11.762;2023-02-11T11:35:35;18.65;;;10.85;;
12480;SDS011;6305;48.398;11.762;2023-02-11T11:38:18;16.58;;;10.15;;
12480;SDS011;6305;48.398;11.762;2023-02-11T11:40:49;17.95;;;10.57;;
12480;SDS011;6305;48.398;11.762;2023-02-11T11:44:02;19.90;;;11.23;;
12480;SDS011;6305;48.398;11.762;2023-02-11T11:46:41;17.60;;;10.70;;
12480;SDS011;6305;48.398;11.762;2023-02-11T11:49:16;18.23;;;10.00;;
12480;SDS011;6305;48.398;11.762;2023-02-11T11:51:55;18.38;;;10.82;;
12480;SDS011;6305;48.398;11.762;2023-02-11T11:54:35;21.05;;;11.63;;
12480;SDS011;6305;48.398;11.762;2023-02-11T11:57:04;16.42;;;10.93;;
12480;SDS011;6305;48.398;11.762;2023-02-11T11:59:38;19.27;;;10.95;;
12480;SDS011;6305;48.398;11.762;2023-02-11T12:02:22;18.13;;;10.50;;
12480;SDS011;6305;48.398;11.762;2023-02-11T12:05:36;17.40;;;10.50;;
12480;SDS011;6305;48.398;11.762;2023-02-11T12:08:13;20.88;;;11.48;;
12480;SDS011;6305;48.398;11.762;2023-02-11T12:10:58;18.52;;;10.23;;
12480;SDS011;6305;48.398;11.762;2023-02-11T12:13:47;19.05;;;10.45;;
12480;SDS011;6305;48.398;11.762;2023-02-11T12:16:24;16.63;;;9.75;;
12480;SDS011;6305;48.398;11.762;2023-02-11T12:19:23;14.52;;;9.95;;
12480;SDS011;6305;48.398;11.762;2023-02-11T12:22:07;12.85;;;9.20;;
12480;SDS011;6305;48.398;11.762;2023-02-11T12:24:41;17.75;;;10.27;;
12480;SDS011;6305;48.398;11.762;2023-02-11T12:27:21;14.43;;;9.63;;
12480;SDS011;6305;48.398;11.762;2023-02-11T12:29:59;17.13;;;9.63;;
12480;SDS011;6305;48.398;11.762;2023-02-11T12:32:41;14.70;;;9.50;;
12480;SDS011;6305;48.398;11.762;2023-02-11T12:35:15;13.88;;;9.35;;
12480;SDS011;6305;48.398;11.762;2023-02-11T12:40:48;16.08;;;10.30;;
12480;SDS011;6305;48.398;11.762;2023-02-11T12:43:24;16.65;;;10.23;;
12480;SDS011;6305;48.398;11.762;2023-02-11T12:46:00;14.48;;;9.57;;
12480;SDS011;6305;48.398;11.762;2023-02-11T12:48:38;14.73;;;9.15;;
12480;SDS011;6305;48.398;11.762;2023-02-11T12:51:23;14.80;;;10.02;;
12480;SDS011;6305;48.398;11.762;2023-02-11T12:56:53;14.57;;;9.15;;
12480;SDS011;6305;48.398;11.762;2023-02-11T12:59:31;16.83;;;9.80;;
12480;SDS011;6305;48.398;11.762;2023-02-11T13:02:11;12.23;;;8.90;;
12480;SDS011;6305;48.398;11.762;2023-02-11T13:04:45;12.80;;;8.93;;
12480;SDS011;6305;48.398;11.762;2023-02-11T13:07:18;14.55;;;9.30;;
12480;SDS011;6305;48.398;11.762;2023-02-11T13:09:58;11.68;;;8.73;;
12480;SDS011;6305;48.398;11.762;2023-02-11T13:12:30;12.73;;;8.77;;
12480;SDS011;6305;48.398;11.762;2023-02-11T13:15:24;13.63;;;8.95;;
12480;SDS011;6305;48.398;11.762;2023-02-11T13:17:53;11.35;;;8.60;;
12480;SDS011;6305;48.398;11.762;2023-02-11T13:20:31;11.75;;;8.57;;
12480;SDS011;6305;48.398;11.762;2023-02-11T13:23:07;12.82;;;9.10;;
12480;SDS011;6305;48.398;11.762;2023-02-11T13:25:46;11.68;;;8.38;;
12480;SDS011;6305;48.398;11.762;2023-02-11T13:28:24;14.13;;;8.70;;
12480;SDS011;6305;48.398;11.762;2023-02-11T13:31:00;13.02;;;8.73;;
12480;SDS011;6305;48.398;11.762;2023-02-11T13:33:32;11.70;;;9.02;;
12480;SDS011;6305;48.398;11.762;2023-02-11T13:36:20;10.40;;;7.45;;
12480;SDS011;6305;48.398;11.762;2023-02-11T13:38:53;10.57;;;7.60;;
12480;SDS011;6305;48.398;11.762;2023-02-11T13:41:24;13.43;;;8.13;;
12480;SDS011;6305;48.398;11.762;2023-02-11T13:43:58;10.57;;;8.15;;
12480;SDS011;6305;48.398;11.762;2023-02-11T13:46:46;11.60;;;7.95;;
12480;SDS011;6305;48.398;11.762;2023-02-11T13:49:17;11.45;;;7.28;;
12480;SDS011;6305;48.398;11.762;2023-02-11T13:51:46;11.93;;;7.63;;
12480;SDS011;6305;48.398;11.762;2023-02-11T14:00:05;13.65;;;8.75;;
12480;SDS011;6305;48.398;11.762;2023-02-11T14:06:10;14.15;;;9.10;;
12480;SDS011;6305;48.398;11.762;2023-02-11T14:08:59;14.57;;;8.73;;
12480;SDS011;6305;48.398;11.762;2023-02-11T14:11:41;12.77;;;9.02;;
12480;SDS011;6305;48.398;11.762;2023-02-11T14:14:18;16.15;;;9.18;;
12480;SDS011;6305;48.398;11.762;2023-02-11T14:19:45;12.60;;;8.15;;
12480;SDS011;6305;48.398;11.762;2023-02-11T14:22:14;14.38;;;9.13;;
12480;SDS011;6305;48.398;11.762;2023-02-11T14:24:46;11.50;;;8.40;;
12480;SDS011;6305;48.398;11.762;2023-02-11T14:27:22;14.27;;;8.52;;
12480;SDS011;6305;48.398;11.762;2023-02-11T14:30:10;12.35;;;8.70;;
12480;SDS011;6305;48.398;11.762;2023-02-11T14:32:51;14.88;;;8.95;;
12480;SDS011;6305;48.398;11.762;2023-02-11T14:35:40;13.63;;;8.70;;
12480;SDS011;6305;48.398;11.762;2023-02-11T14:38:18;16.00;;;9.07;;
12480;SDS011;6305;48.398;11.762;2023-02-11T14:40:53;17.83;;;9.88;;
12480;SDS011;6305;48.398;11.762;2023-02-11T14:43:28;15.05;;;9.82;;
12480;SDS011;6305;48.398;11.762;2023-02-11T14:46:00;14.43;;;9.13;;
12480;SDS011;6305;48.398;11.762;2023-02-11T14:48:29;14.52;;;9.93;;
12480;SDS011;6305;48.398;11.762;2023-02-11T14:51:03;16.65;;;9.73;;
12480;SDS011;6305;48.398;11.762;2023-02-11T14:53:34;16.05;;;9.80;;
12480;SDS011;6305;48.398;11.762;2023-02-11T14:56:03;14.35;;;10.15;;
12480;SDS011;6305;48.398;11.762;2023-02-11T14:58:44;14.32;;;9.65;;
12480;SDS011;6305;48.398;11.762;2023-02-11T15:01:23;22.88;;;10.80;;
12480;SDS011;6305;48.398;11.762;2023-02-11T15:03:53;16.95;;;9.80;;
12480;SDS011;6305;48.398;11.762;2023-02-11T15:06:23;17.50;;;10.02;;
12480;SDS011;6305;48.398;11.762;2023-02-11T15:08:54;20.80;;;10.38;;
12480;SDS011;6305;48.398;11.762;2023-02-11T15:11:26;17.35;;;10.35;;